sensor_id;sensor_type;location;lat;lon;timestamp;P1;durP1;ratioP1;P2;durP2;ratioP2
76846;SDS011;65813;49.546;8.644;2023-03-03T05:19:14;14.55;;;6.82;;
76846;SDS011;65813;49.546;8.644;2023-03-03T05:23:14;15.10;;;7.15;;
76846;SDS011;65813;49.546;8.644;2023-03-03T05:27:15;13.25;;;6.70;;
76846;SDS011;65813;49.546;8.644;2023-03-03T05:31:15;17.63;;;6.93;;
76846;SDS011;65813;49.546;8.644;2023-03-03T05:35:16;15.93;;;6.87;;
76846;SDS011;65813;49.546;8.644;2023-03-03T05:39:16;13.57;;;6.63;;
76846;SDS011;65813;49.546;8.644;2023-03-03T05:43:17;14.25;;;6.75;;
76846;SDS011;65813;49.546;8.644;2023-03-03T05:47:17;16.77;;;7.30;;
76846;SDS011;65813;49.546;8.644;2023-03-03T05:51:17;16.77;;;7.67;;
76846;SDS011;65813;49.546;8.644;2023-03-03T05:55:18;15.53;;;7.00;;
76846;SDS011;65813;49.546;8.644;2023-03-03T05:59:19;17.50;;;7.80;;
76846;SDS011;65813;49.546;8.644;2023-03-03T06:03:21;15.93;;;7.95;;
76846;SDS011;65813;49.546;8.644;2023-03-03T06:07:21;17.80;;;8.23;;
76846;SDS011;65813;49.546;8.644;2023-03-03T06:11:21;19.50;;;8.37;;
76846;SDS011;65813;49.546;8.644;2023-03-03T06:15:22;15.40;;;7.67;;
76846;SDS011;65813;49.546;8.644;2023-03-03T06:19:22;15.93;;;7.30;;
76846;SDS011;65813;49.546;8.644;2023-03-03T06:23:23;17.85;;;7.60;;
76846;SDS011;65813;49.546;8.644;2023-03-03T06:27:23;19.47;;;8.17;;
76846;SDS011;65813;49.546;8.644;2023-03-03T06:31:24;17.07;;;7.63;;
76846;SDS011;65813;49.546;8.644;2023-03-03T06:35:24;18.67;;;7.78;;
76846;SDS011;65813;49.546;8.644;2023-03-03T06:39:25;18.52;;;8.02;;
76846;SDS011;65813;49.546;8.644;2023-03-03T06:43:25;16.58;;;7.75;;
76846;SDS011;65813;49.546;8.644;2023-03-03T06:47:26;14.73;;;7.30;;
76846;SDS011;65813;49.546;8.644;2023-03-03T06:51:30;16.60;;;7.20;;
76846;SDS011;65813;49.546;8.644;2023-03-03T06:55:32;19.80;;;7.53;;
76846;SDS011;65813;49.546;8.644;2023-03-03T06:59:32;14.77;;;7.17;;
76846;SDS011;65813;49.546;8.644;2023-03-03T07:03:33;17.90;;;8.03;;
76846;SDS011;65813;49.546;8.644;2023-03-03T07:07:34;16.05;;;7.38;;
76846;SDS011;65813;49.546;8.644;2023-03-03T07:11:34;18.50;;;7.00;;
76846;SDS011;65813;49.546;8.644;2023-03-03T07:15:38;16.63;;;7.72;;
76846;SDS011;65813;49.546;8.644;2023-03-03T07:19:38;17.10;;;7.93;;
76846;SDS011;65813;49.546;8.644;2023-03-03T07:23:40;15.40;;;7.70;;
76846;SDS011;65813;49.546;8.644;2023-03-03T07:27:43;16.58;;;7.85;;
76846;SDS011;65813;49.546;8.644;2023-03-03T07:31:47;13.90;;;8.00;;
76846;SDS011;65813;49.546;8.644;2023-03-03T07:35:48;17.48;;;8.32;;
76846;SDS011;65813;49.546;8.644;2023-03-03T07:39:49;26.00;;;15.17;;
76846;SDS011;65813;49.546;8.644;2023-03-03T07:43:50;20.98;;;11.20;;
76846;SDS011;65813;49.546;8.644;2023-03-03T07:48:12;19.30;;;10.25;;
76846;SDS011;65813;49.546;8.644;2023-03-03T07:56:29;18.65;;;8.73;;
76846;SDS011;65813;49.546;8.644;2023-03-03T08:05:14;17.00;;;9.07;;
76846;SDS011;65813;49.546;8.644;2023-03-03T08:13:42;20.08;;;9.35;;
76846;SDS011;65813;49.546;8.644;2023-03-03T08:17:44;21.88;;;10.23;;
76846;SDS011;65813;49.546;8.644;2023-03-03T08:21:46;16.98;;;10.00;;
76846;SDS011;65813;49.546;8.644;2023-03-03T08:25:47;19.10;;;9.60;;
76846;SDS011;65813;49.546;8.644;2023-03-03T08:29:48;20.17;;;10.45;;
76846;SDS011;65813;49.546;8.644;2023-03-03T08:33:49;18.67;;;9.90;;
76846;SDS011;65813;49.546;8.644;2023-03-03T08:37:49;18.13;;;9.47;;
76846;SDS011;65813;49.546;8.644;2023-03-03T08:41:50;19.60;;;9.43;;
76846;SDS011;65813;49.546;8.644;2023-03-03T08:45:51;18.90;;;9.90;;
76846;SDS011;65813;49.546;8.644;2023-03-03T08:49:53;22.90;;;10.93;;
76846;SDS011;65813;49.546;8.644;2023-03-03T08:53:54;22.27;;;11.60;;
76846;SDS011;65813;49.546;8.644;2023-03-03T08:57:54;26.88;;;13.63;;
76846;SDS011;65813;49.546;8.644;2023-03-03T09:01:55;25.30;;;13.03;;
76846;SDS011;65813;49.546;8.644;2023-03-03T09:05:55;28.23;;;13.23;;
76846;SDS011;65813;49.546;8.644;2023-03-03T09:09:55;25.98;;;13.98;;
76846;SDS011;65813;49.546;8.644;2023-03-03T09:14:06;26.73;;;13.73;;
76846;SDS011;65813;49.546;8.644;2023-03-03T09:18:17;29.08;;;14.73;;
76846;SDS011;65813;49.546;8.644;2023-03-03T09:22:41;25.95;;;12.65;;
76846;SDS011;65813;49.546;8.644;2023-03-03T09:26:47;28.15;;;14.95;;
76846;SDS011;65813;49.546;8.644;2023-03-03T09:30:48;27.83;;;14.27;;
76846;SDS011;65813;49.546;8.644;2023-03-03T09:34:50;29.50;;;14.60;;
76846;SDS011;65813;49.546;8.644;2023-03-03T09:38:51;32.60;;;14.52;;
76846;SDS011;65813;49.546;8.644;2023-03-03T10:00:18;27.92;;;13.57;;
76846;SDS011;65813;49.546;8.644;2023-03-03T10:04:23;31.40;;;15.07;;
76846;SDS011;65813;49.546;8.644;2023-03-03T10:13:01;32.13;;;13.48;;
76846;SDS011;65813;49.546;8.644;2023-03-03T10:17:31;30.70;;;13.88;;
76846;SDS011;65813;49.546;8.644;2023-03-03T10:43:42;33.78;;;14.55;;
76846;SDS011;65813;49.546;8.644;2023-03-03T10:47:57;31.00;;;13.68;;
76846;SDS011;65813;49.546;8.644;2023-03-03T10:52:18;29.63;;;14.20;;
76846;SDS011;65813;49.546;8.644;2023-03-03T10:56:36;32.15;;;16.58;;
76846;SDS011;65813;49.546;8.644;2023-03-03T11:08:52;34.78;;;15.48;;
76846;SDS011;65813;49.546;8.644;2023-03-03T11:17:43;35.05;;;14.07;;
76846;SDS011;65813;49.546;8.644;2023-03-03T11:22:00;33.65;;;15.48;;
76846;SDS011;65813;49.546;8.644;2023-03-03T11:30:34;31.23;;;14.33;;
76846;SDS011;65813;49.546;8.644;2023-03-03T11:34:57;34.05;;;15.68;;
76846;SDS011;65813;49.546;8.644;2023-03-03T11:39:04;33.60;;;16.38;;
76846;SDS011;65813;49.546;8.644;2023-03-03T11:47:31;31.48;;;14.85;;
76846;SDS011;65813;49.546;8.644;2023-03-03T12:04:55;27.52;;;13.55;;
76846;SDS011;65813;49.546;8.644;2023-03-03T12:22:25;29.90;;;14.45;;
76846;SDS011;65813;49.546;8.644;2023-03-03T12:26:35;31.17;;;15.35;;
76846;SDS011;65813;49.546;8.644;2023-03-03T12:30:48;27.83;;;13.82;;
76846;SDS011;65813;49.546;8.644;2023-03-03T13:01:33;28.70;;;14.93;;
76846;SDS011;65813;49.546;8.644;2023-03-03T13:05:54;29.77;;;14.80;;
76846;SDS011;65813;49.546;8.644;2023-03-03T13:10:13;26.17;;;15.57;;
76846;SDS011;65813;49.546;8.644;2023-03-03T13:27:10;32.65;;;14.75;;
76846;SDS011;65813;49.546;8.644;2023-03-03T13:31:27;25.83;;;13.25;;
76846;SDS011;65813;49.546;8.644;2023-03-03T13:35:37;26.98;;;12.48;;
76846;SDS011;65813;49.546;8.644;2023-03-03T13:44:40;26.88;;;13.88;;
76846;SDS011;65813;49.546;8.644;2023-03-03T14:02:06;24.25;;;11.38;;
76846;SDS011;65813;49.546;8.644;2023-03-03T14:06:16;25.02;;;12.48;;
76846;SDS011;65813;49.546;8.644;2023-03-03T14:10:23;25.23;;;13.43;;
76846;SDS011;65813;49.546;8.644;2023-03-03T14:19:01;25.48;;;11.90;;
76846;SDS011;65813;49.546;8.644;2023-03-03T14:23:09;23.17;;;11.75;;
76846;SDS011;65813;49.546;8.644;2023-03-03T14:27:32;26.13;;;11.80;;
76846;SDS011;65813;49.546;8.644;2023-03-03T14:31:38;23.25;;;11.63;;
76846;SDS011;65813;49.546;8.644;2023-03-03T14:39:42;25.27;;;12.00;;
76846;SDS011;65813;49.546;8.644;2023-03-03T14:44:01;25.88;;;12.10;;
76846;SDS011;65813;49.546;8.644;2023-03-03T14:48:29;21.25;;;10.68;;
76846;SDS011;65813;49.546;8.644;2023-03-03T14:52:31;23.90;;;12.00;;
76846;SDS011;65813;49.546;8.644;2023-03-03T14:56:33;25.67;;;11.75;;
76846;SDS011;65813;49.546;8.644;2023-03-03T15:00:35;24.65;;;11.88;;
76846;SDS011;65813;49.546;8.644;2023-03-03T15:04:36;22.55;;;11.65;;
76846;SDS011;65813;49.546;8.644;2023-03-03T15:08:38;21.90;;;10.70;;
76846;SDS011;65813;49.546;8.644;2023-03-03T15:12:40;24.52;;;11.02;;
76846;SDS011;65813;49.546;8.644;2023-03-03T15:16:41;23.63;;;11.50;;
76846;SDS011;65813;49.546;8.644;2023-03-03T15:25:00;20.48;;;9.60;;
76846;SDS011;65813;49.546;8.644;2023-03-03T15:29:25;20.98;;;10.07;;
76846;SDS011;65813;49.546;8.644;2023-03-03T15:42:06;17.90;;;9.40;;
76846;SDS011;65813;49.546;8.644;2023-03-03T15:54:35;17.80;;;8.00;;
76846;SDS011;65813;49.546;8.644;2023-03-03T16:02:49;17.25;;;8.68;;
76846;SDS011;65813;49.546;8.644;2023-03-03T16:11:07;18.58;;;8.52;;
76846;SDS011;65813;49.546;8.644;2023-03-03T16:15:20;17.80;;;8.93;;
76846;SDS011;65813;49.546;8.644;2023-03-03T16:23:48;16.63;;;7.97;;
76846;SDS011;65813;49.546;8.644;2023-03-03T16:36:42;15.93;;;7.35;;
76846;SDS011;65813;49.546;8.644;2023-03-03T16:41:17;15.65;;;6.75;;
76846;SDS011;65813;49.546;8.644;2023-03-03T16:45:26;16.38;;;8.50;;
76846;SDS011;65813;49.546;8.644;2023-03-03T16:49:36;19.92;;;8.90;;
76846;SDS011;65813;49.546;8.644;2023-03-03T16:58:00;17.10;;;8.10;;
76846;SDS011;65813;49.546;8.644;2023-03-03T17:06:58;16.38;;;8.15;;
76846;SDS011;65813;49.546;8.644;2023-03-03T17:11:24;16.95;;;8.35;;
76846;SDS011;65813;49.546;8.644;2023-03-03T17:41:56;20.48;;;10.75;;
76846;SDS011;65813;49.546;8.644;2023-03-03T17:46:11;21.05;;;9.70;;
76846;SDS011;65813;49.546;8.644;2023-03-03T17:55:02;22.30;;;9.50;;
76846;SDS011;65813;49.546;8.644;2023-03-03T18:08:39;20.77;;;9.88;;
76846;SDS011;65813;49.546;8.644;2023-03-03T18:17:15;21.70;;;10.98;;
76846;SDS011;65813;49.546;8.644;2023-03-03T18:21:26;24.38;;;10.75;;
76846;SDS011;65813;49.546;8.644;2023-03-03T18:34:29;21.42;;;10.43;;
76846;SDS011;65813;49.546;8.644;2023-03-03T18:38:33;21.88;;;10.32;;
76846;SDS011;65813;49.546;8.644;2023-03-03T18:42:40;24.65;;;11.00;;
76846;SDS011;65813;49.546;8.644;2023-03-03T18:46:46;22.83;;;9.70;;
76846;SDS011;65813;49.546;8.644;2023-03-03T18:50:48;21.73;;;9.95;;
76846;SDS011;65813;49.546;8.644;2023-03-03T18:59:00;18.92;;;9.65;;
76846;SDS011;65813;49.546;8.644;2023-03-03T19:03:02;19.20;;;9.30;;
76846;SDS011;65813;49.546;8.644;2023-03-03T19:07:29;18.63;;;9.05;;
76846;SDS011;65813;49.546;8.644;2023-03-03T19:11:54;19.90;;;9.50;;
76846;SDS011;65813;49.546;8.644;2023-03-03T19:15:55;17.45;;;7.97;;
76846;SDS011;65813;49.546;8.644;2023-03-03T19:19:59;18.45;;;8.77;;
76846;SDS011;65813;49.546;8.644;2023-03-03T19:24:08;19.02;;;8.40;;
76846;SDS011;65813;49.546;8.644;2023-03-03T19:28:35;20.63;;;9.20;;
76846;SDS011;65813;49.546;8.644;2023-03-03T19:33:06;17.42;;;8.68;;
76846;SDS011;65813;49.546;8.644;2023-03-03T20:07:12;15.00;;;6.75;;
76846;SDS011;65813;49.546;8.644;2023-03-03T20:16:02;15.65;;;6.78;;
76846;SDS011;65813;49.546;8.644;2023-03-03T20:41:57;20.42;;;8.77;;
76846;SDS011;65813;49.546;8.644;2023-03-03T20:59:03;16.02;;;7.18;;
76846;SDS011;65813;49.546;8.644;2023-03-03T21:08:00;14.35;;;6.50;;
76846;SDS011;65813;49.546;8.644;2023-03-03T21:12:25;16.67;;;7.20;;
76846;SDS011;65813;49.546;8.644;2023-03-03T21:16:30;18.00;;;7.70;;
76846;SDS011;65813;49.546;8.644;2023-03-03T21:20:32;17.55;;;8.10;;
76846;SDS011;65813;49.546;8.644;2023-03-03T21:24:46;16.73;;;8.18;;
76846;SDS011;65813;49.546;8.644;2023-03-03T21:28:58;16.77;;;7.57;;
76846;SDS011;65813;49.546;8.644;2023-03-03T21:32:59;16.70;;;8.50;;
76846;SDS011;65813;49.546;8.644;2023-03-03T21:37:08;15.70;;;7.63;;
76846;SDS011;65813;49.546;8.644;2023-03-03T21:41:11;23.20;;;9.73;;
76846;SDS011;65813;49.546;8.644;2023-03-03T21:45:13;18.63;;;8.45;;
76846;SDS011;65813;49.546;8.644;2023-03-03T21:49:15;17.23;;;8.13;;
76846;SDS011;65813;49.546;8.644;2023-03-03T21:53:15;16.23;;;7.43;;
76846;SDS011;65813;49.546;8.644;2023-03-03T21:57:16;17.80;;;7.73;;
76846;SDS011;65813;49.546;8.644;2023-03-03T22:01:17;19.88;;;7.90;;
76846;SDS011;65813;49.546;8.644;2023-03-03T22:05:17;13.37;;;6.70;;
76846;SDS011;65813;49.546;8.644;2023-03-03T22:09:18;15.07;;;7.03;;
76846;SDS011;65813;49.546;8.644;2023-03-03T22:13:19;16.83;;;6.47;;
76846;SDS011;65813;49.546;8.644;2023-03-03T22:21:29;13.30;;;5.90;;
76846;SDS011;65813;49.546;8.644;2023-03-03T22:25:30;12.45;;;4.97;;
76846;SDS011;65813;49.546;8.644;2023-03-03T22:29:30;13.73;;;5.50;;
76846;SDS011;65813;49.546;8.644;2023-03-03T22:33:31;11.80;;;5.17;;
76846;SDS011;65813;49.546;8.644;2023-03-03T22:37:31;11.13;;;5.07;;
76846;SDS011;65813;49.546;8.644;2023-03-03T22:41:31;12.00;;;5.30;;
76846;SDS011;65813;49.546;8.644;2023-03-03T22:45:32;12.15;;;5.78;;
76846;SDS011;65813;49.546;8.644;2023-03-03T22:49:33;13.02;;;5.38;;
76846;SDS011;65813;49.546;8.644;2023-03-03T22:53:33;10.33;;;5.00;;
76846;SDS011;65813;49.546;8.644;2023-03-03T22:57:33;12.43;;;4.77;;
76846;SDS011;65813;49.546;8.644;2023-03-03T23:01:34;11.77;;;4.60;;
76846;SDS011;65813;49.546;8.644;2023-03-03T23:05:34;12.83;;;5.03;;
76846;SDS011;65813;49.546;8.644;2023-03-03T23:09:35;11.75;;;4.68;;
